Time;durP1;ratioP1;P1;durP2;ratioP2;P2;SDS_P1;SDS_P2;PMS_P1;PMS_P2;Temp;Humidity;BMP_temperature;BMP_pressure;BME280_temperature;BME280_humidity;BME280_pressure;Samples;Min_cycle;Max_cycle;Signal;HPM_P1;HPM_P2
2022/08/12 00:42:57;;;;;;;2.00;1.15;;;;;;;24.82;34.14;99724.00;4458694;32;33350;-61
2022/08/12 00:45:25;;;;;;;3.92;1.30;;;;;;;24.77;34.57;99717.44;4463860;32;33834;-61
2022/08/12 00:47:53;;;;;;;2.17;1.20;;;;;;;24.78;34.47;99713.66;4459152;32;35174;-61
2022/08/12 00:50:21;;;;;;;3.03;1.30;;;;;;;24.78;34.49;99720.00;4459118;32;33863;-61
2022/08/12 00:52:50;;;;;;;1.80;0.90;;;;;;;24.62;34.99;99717.63;4459121;32;34504;-61
2022/08/12 00:55:18;;;;;;;2.80;1.20;;;;;;;24.60;35.20;99717.00;4461067;32;33858;-61
2022/08/12 00:57:48;;;;;;;2.12;1.15;;;;;;;24.60;35.27;99717.00;4454957;32;34987;-61
2022/08/12 01:00:21;;;;;;;1.85;0.93;;;;;;;24.65;35.32;99719.94;4457158;32;33961;-61
2022/08/12 01:02:52;;;;;;;3.80;1.35;;;;;;;24.62;35.23;99715.75;4458189;32;33536;-61
2022/08/12 01:13:51;;;;;;;1.45;0.80;;;;;;;24.46;35.48;99720.72;4448721;32;33745;-61
2022/08/12 01:16:23;;;;;;;2.72;1.20;;;;;;;24.27;35.90;99720.44;4443058;32;34965;-61
2022/08/12 01:18:53;;;;;;;3.70;1.33;;;;;;;24.28;36.27;99722.12;4451174;32;32894;-61
2022/08/12 01:21:40;;;;;;;3.30;1.30;;;;;;;24.45;35.63;99714.41;4452695;32;34945;-61
2022/08/12 01:24:32;;;;;;;2.25;1.10;;;;;;;24.59;35.49;99723.50;4444957;32;33674;-61
2022/08/12 01:27:02;;;;;;;2.42;1.00;;;;;;;24.62;35.39;99723.97;4438497;32;34808;-61
2022/08/12 01:29:37;;;;;;;2.45;1.08;;;;;;;24.59;35.39;99726.25;4461979;32;33970;-61
2022/08/12 01:32:07;;;;;;;2.75;1.00;;;;;;;24.44;35.63;99717.38;4439777;32;33877;-61
2022/08/12 01:34:37;;;;;;;2.53;1.08;;;;;;;24.50;35.51;99719.28;4447085;32;32998;-62
2022/08/12 01:37:07;;;;;;;2.92;1.40;;;;;;;24.36;35.74;99719.19;4459560;32;34985;-61
2022/08/12 01:39:41;;;;;;;5.35;1.52;;;;;;;24.30;35.96;99716.44;4464334;32;35195;-62
2022/08/12 01:42:36;;;;;;;2.08;1.15;;;;;;;24.24;36.17;99715.38;4466894;32;34020;-61
2022/08/12 01:45:04;;;;;;;;;;;;;;;24.18;36.10;99717.03;4442037;32;34768;-61
2022/08/12 01:47:45;;;;;;;3.75;1.08;;;;;;;24.25;36.36;99708.00;4448412;32;32709;-62
2022/08/12 01:50:20;;;;;;;2.25;1.08;;;;;;;24.34;36.12;99709.53;4449873;32;35236;-61
2022/08/12 01:53:05;;;;;;;2.10;1.20;;;;;;;24.32;36.03;99700.66;4444948;32;34213;-62
2022/08/12 01:55:36;;;;;;;4.22;1.08;;;;;;;24.34;36.08;99701.31;4464831;32;34581;-62
2022/08/12 01:58:19;;;;;;;2.20;1.20;;;;;;;24.26;36.06;99699.59;4441699;32;33737;-62
2022/08/12 02:00:51;;;;;;;3.28;1.15;;;;;;;24.21;35.90;99696.66;4457299;32;34511;-62
2022/08/12 02:13:23;;;;;;;1.95;0.90;;;;;;;24.09;36.20;99693.63;4454442;32;32923;-62
2022/08/12 02:16:35;;;;;;;3.20;1.10;;;;;;;24.13;36.06;99688.59;4462777;32;35275;-62
2022/08/12 02:19:39;;;;;;;3.08;1.10;;;;;;;24.01;36.28;99684.75;4464294;32;34415;-62
2022/08/12 02:22:19;;;;;;;1.83;1.05;;;;;;;24.01;36.34;99676.56;4460814;32;34635;-61
2022/08/12 02:24:49;;;;;;;2.55;1.20;;;;;;;23.91;36.49;99675.03;4469701;32;33829;-61
2022/08/12 02:27:18;;;;;;;4.22;1.40;;;;;;;23.79;36.83;99678.53;4455418;32;34042;-61
2022/08/12 02:29:47;;;;;;;2.67;0.98;;;;;;;23.68;37.03;99672.63;4461639;32;34304;-61
2022/08/12 02:32:15;;;;;;;2.08;1.17;;;;;;;23.62;37.24;99670.66;4457284;32;33865;-62
2022/08/12 02:34:43;;;;;;;2.33;1.40;;;;;;;23.56;37.49;99676.06;4463177;32;33855;-61
2022/08/12 02:37:14;;;;;;;2.65;1.60;;;;;;;23.49;37.70;99676.88;4456596;32;35053;-61
2022/08/12 02:39:47;;;;;;;2.62;1.08;;;;;;;23.47;37.79;99668.06;4463493;32;34544;-61
2022/08/12 02:42:18;;;;;;;2.45;1.17;;;;;;;23.54;37.61;99670.81;4445951;32;34807;-61
2022/08/12 02:44:50;;;;;;;3.28;1.50;;;;;;;23.28;38.21;99678.84;4442088;32;35218;-61
2022/08/12 02:47:20;;;;;;;3.25;1.45;;;;;;;23.26;38.30;99676.28;4446180;32;35607;-61
2022/08/12 02:50:09;;;;;;;2.30;1.20;;;;;;;23.38;38.03;99669.25;4445479;32;33606;-61
2022/08/12 02:52:37;;;;;;;2.60;1.40;;;;;;;23.27;38.26;99667.06;4452421;32;33657;-61
2022/08/12 02:55:17;;;;;;;1.85;1.02;;;;;;;23.30;38.09;99666.66;4451950;32;33745;-61
2022/08/12 02:58:08;;;;;;;1.75;0.93;;;;;;;23.18;38.34;99662.81;4458560;32;34198;-61
2022/08/12 03:00:42;;;;;;;2.55;1.27;;;;;;;23.23;38.38;99661.16;4457184;32;32291;-61
2022/08/12 03:03:12;;;;;;;3.78;1.40;;;;;;;23.33;37.96;99660.81;4455833;32;33679;-61
2022/08/12 03:05:47;;;;;;;3.08;1.55;;;;;;;23.24;38.09;99656.53;4460533;32;33796;-61
2022/08/12 03:08:19;;;;;;;3.53;1.25;;;;;;;23.14;38.30;99647.84;4440283;32;34083;-61
2022/08/12 03:11:03;;;;;;;1.87;0.98;;;;;;;23.13;38.33;99659.81;4465197;32;30807;-61
2022/08/12 03:13:41;;;;;;;1.73;0.98;;;;;;;23.10;38.45;99655.59;4453301;32;32667;-61
2022/08/12 03:16:09;;;;;;;3.05;1.58;;;;;;;23.21;38.00;99657.78;4454542;32;33172;-61
2022/08/12 03:18:40;;;;;;;1.55;0.82;;;;;;;23.23;37.94;99658.41;4447225;32;34061;-60
2022/08/12 03:21:15;;;;;;;1.73;1.00;;;;;;;23.31;37.93;99656.59;4463465;32;33674;-62
2022/08/12 03:23:45;;;;;;;1.95;1.15;;;;;;;23.33;37.74;99660.81;4465218;32;34059;-61
2022/08/12 03:26:13;;;;;;;2.20;1.25;;;;;;;23.26;37.90;99657.19;4457851;32;33734;-61
2022/08/12 03:28:50;;;;;;;4.50;1.50;;;;;;;23.28;37.79;99657.00;4456326;32;33825;-61
2022/08/12 03:31:21;;;;;;;3.10;1.35;;;;;;;23.29;37.79;99659.53;4462408;32;34786;-61
2022/08/12 03:33:49;;;;;;;2.80;1.48;;;;;;;23.27;37.77;99661.59;4444560;32;33262;-61
2022/08/12 03:36:34;;;;;;;1.65;0.93;;;;;;;23.25;37.93;99663.69;4455977;32;34089;-64
2022/08/12 03:42:04;;;;;;;3.37;1.58;;;;;;;23.17;38.36;99666.56;4452748;32;33677;-62
2022/08/12 04:01:59;;;;;;;2.15;1.25;;;;;;;23.08;38.28;99673.22;4445028;32;32794;-62
2022/08/12 04:04:32;;;;;;;3.60;1.67;;;;;;;23.11;38.29;99670.91;4455051;32;33690;-62
2022/08/12 04:07:09;;;;;;;2.85;1.60;;;;;;;23.11;38.15;99676.38;4450921;32;35139;-62
2022/08/12 04:09:39;;;;;;;4.07;1.40;;;;;;;23.10;38.18;99677.44;4456067;32;32785;-62
2022/08/12 04:15:00;;;;;;;3.03;1.58;;;;;;;23.21;38.10;99679.63;4456582;32;32676;-61
2022/08/12 04:17:30;;;;;;;7.60;1.83;;;;;;;23.22;37.95;99683.22;4455711;32;35046;-62
2022/08/12 04:19:58;;;;;;;3.00;1.40;;;;;;;23.28;37.93;99681.56;4465770;32;34069;-61
2022/08/12 04:22:28;;;;;;;3.87;2.00;;;;;;;23.22;37.96;99680.47;4457207;32;34094;-62
2022/08/12 04:24:59;;;;;;;4.43;2.00;;;;;;;23.16;38.25;99686.72;4467454;32;32332;-61
2022/08/12 04:27:30;;;;;;;4.22;1.90;;;;;;;23.22;38.09;99696.84;4467963;32;34917;-62
2022/08/12 04:29:59;;;;;;;4.10;1.92;;;;;;;23.27;38.14;99686.16;4460824;32;34728;-62
2022/08/12 04:32:48;;;;;;;4.00;1.70;;;;;;;23.22;38.15;99688.66;4459778;32;32925;-61
2022/08/12 04:35:17;;;;;;;2.75;1.17;;;;;;;23.19;38.35;99695.38;4446256;32;33478;-60
2022/08/12 04:37:46;;;;;;;1.62;0.98;;;;;;;23.35;38.07;99696.13;4462502;32;33984;-61
2022/08/12 04:40:29;;;;;;;3.67;1.70;;;;;;;23.40;37.90;99699.06;4462257;32;34936;-61
2022/08/12 04:42:59;;;;;;;3.90;1.70;;;;;;;23.47;37.91;99694.53;4464876;32;32405;-60
2022/08/12 04:45:33;;;;;;;6.25;1.92;;;;;;;23.57;37.83;99700.47;4461880;32;33899;-61
2022/08/12 04:48:00;;;;;;;3.22;1.58;;;;;;;23.57;37.81;99705.94;4463930;32;33776;-60
2022/08/12 04:50:30;;;;;;;3.10;1.60;;;;;;;23.77;37.45;99707.97;4468876;32;33783;-61
2022/08/12 04:53:05;;;;;;;4.15;1.70;;;;;;;23.77;37.54;99710.72;4453932;32;32794;-60
2022/08/12 04:55:33;;;;;;;3.17;1.67;;;;;;;23.74;37.59;99711.13;4460196;32;32125;-61
2022/08/12 04:58:01;;;;;;;3.17;1.67;;;;;;;23.87;37.54;99706.56;4460804;32;34967;-61
2022/08/12 05:00:28;;;;;;;2.90;1.45;;;;;;;24.01;37.03;99706.63;4453795;32;35186;-61
2022/08/12 05:02:56;;;;;;;4.20;1.50;;;;;;;24.60;36.36;99711.53;4454118;32;34116;-61
2022/08/12 05:05:24;;;;;;;2.53;1.33;;;;;;;26.19;33.60;99721.59;4453658;32;33423;-61
2022/08/12 05:07:52;;;;;;;4.00;1.60;;;;;;;26.68;32.45;99720.97;4458486;32;33871;-61
2022/08/12 05:10:22;;;;;;;4.93;1.50;;;;;;;26.75;32.36;99714.59;4458366;32;34425;-61
2022/08/12 05:13:08;;;;;;;3.08;1.55;;;;;;;26.32;32.84;99720.69;4461900;32;33988;-61
2022/08/12 05:15:40;;;;;;;4.25;1.52;;;;;;;25.73;34.14;99728.03;4447131;32;33454;-61
2022/08/12 05:18:27;;;;;;;3.45;1.40;;;;;;;25.43;34.74;99719.44;4464692;32;35433;-62
2022/08/12 05:20:57;;;;;;;3.12;1.40;;;;;;;25.42;34.48;99725.94;4464481;32;33833;-61
2022/08/12 05:23:26;;;;;;;3.40;1.55;;;;;;;25.28;34.93;99727.84;4469852;32;35315;-61
2022/08/12 05:25:57;;;;;;;4.00;1.50;;;;;;;25.24;34.59;99723.88;4459232;32;34677;-61
2022/08/12 05:28:25;;;;;;;3.17;1.90;;;;;;;25.10;34.95;99722.97;4468287;32;35033;-61
2022/08/12 05:30:54;;;;;;;3.67;1.70;;;;;;;25.08;35.13;99717.72;4456171;32;35527;-61
2022/08/12 05:33:32;;;;;;;5.47;1.50;;;;;;;25.25;34.75;99725.53;4459291;32;34115;-61
2022/08/12 05:35:59;;;;;;;3.50;1.73;;;;;;;25.22;34.74;99724.06;4455287;32;34422;-61
2022/08/12 05:41:19;;;;;;;4.03;1.58;;;;;;;25.86;33.76;99732.66;4454342;32;34294;-61
2022/08/12 05:43:58;;;;;;;4.05;1.60;;;;;;;25.76;33.82;99722.94;4463348;32;34181;-61
2022/08/12 05:46:28;;;;;;;5.30;1.80;;;;;;;25.33;34.94;99728.91;4463512;32;33614;-61
2022/08/12 05:48:57;;;;;;;3.42;2.10;;;;;;;25.60;34.18;99719.84;4465086;32;33311;-61
2022/08/12 05:51:27;;;;;;;6.32;1.60;;;;;;;25.53;34.20;99712.47;4454740;32;34953;-61
2022/08/12 05:54:09;;;;;;;5.30;1.65;;;;;;;25.54;34.08;99718.78;4454476;32;34172;-61
2022/08/12 05:56:39;;;;;;;9.68;1.90;;;;;;;25.44;35.07;99721.09;4452776;32;31662;-61
2022/08/12 05:59:10;;;;;;;4.85;2.05;;;;;;;25.59;34.93;99729.13;4469108;32;33958;-61
2022/08/12 06:01:40;;;;;;;6.10;2.03;;;;;;;25.58;34.60;99720.03;4462952;32;33901;-61
2022/08/12 06:04:28;;;;;;;2.97;1.70;;;;;;;25.53;34.48;99719.84;4453841;32;34291;-61
2022/08/12 06:06:56;;;;;;;5.03;1.85;;;;;;;25.52;34.86;99716.25;4455204;32;34471;-61
2022/08/12 06:09:26;;;;;;;3.42;1.67;;;;;;;25.46;35.35;99721.75;4455791;32;35012;-61
2022/08/12 06:11:54;;;;;;;3.53;1.98;;;;;;;25.78;34.31;99726.34;4464345;32;34373;-61
2022/08/12 06:14:36;;;;;;;7.00;2.20;;;;;;;25.60;34.46;99725.31;4448749;32;32832;-60
2022/08/12 06:17:09;;;;;;;7.47;2.42;;;;;;;25.28;34.89;99728.69;4457958;32;32339;-61
2022/08/12 06:19:37;;;;;;;4.28;2.08;;;;;;;25.00;35.69;99728.00;4459741;32;35087;-61
2022/08/12 06:22:25;;;;;;;3.72;2.10;;;;;;;24.84;35.34;99724.63;4462308;32;32653;-61
2022/08/12 06:24:53;;;;;;;5.22;2.33;;;;;;;24.21;36.23;99731.34;4462138;32;35727;-61
2022/08/12 06:27:20;;;;;;;5.37;2.70;;;;;;;24.76;35.55;99724.00;4457987;32;34595;-61
2022/08/12 06:29:48;;;;;;;3.85;2.15;;;;;;;24.62;35.79;99715.75;4463402;32;33833;-61
2022/08/12 06:32:36;;;;;;;3.62;2.10;;;;;;;24.33;36.02;99724.22;4456970;32;33765;-61
2022/08/12 06:35:26;;;;;;;3.50;2.15;;;;;;;24.39;36.32;99728.88;4457311;32;35166;-61
2022/08/12 06:38:18;;;;;;;4.45;2.33;;;;;;;24.26;36.63;99731.56;4462183;32;33678;-61
2022/08/12 06:43:33;;;;;;;3.80;2.28;;;;;;;24.34;36.43;99724.03;4463554;32;32733;-60
2022/08/12 06:46:22;;;;;;;4.10;2.30;;;;;;;24.33;36.61;99726.97;4454874;32;33876;-60
2022/08/12 06:48:55;;;;;;;3.55;1.80;;;;;;;24.00;36.95;99719.47;4461823;32;34497;-60
2022/08/12 06:51:25;;;;;;;3.28;1.87;;;;;;;24.15;37.00;99725.63;4453375;32;33914;-60
2022/08/12 06:53:54;;;;;;;3.80;1.90;;;;;;;24.57;36.23;99729.19;4456606;32;32494;-60
2022/08/12 06:56:22;;;;;;;4.43;2.17;;;;;;;24.03;37.27;99726.41;4460869;32;34296;-60
2022/08/12 06:59:12;;;;;;;4.43;2.70;;;;;;;24.29;36.89;99720.22;4466774;32;32424;-60
2022/08/12 07:01:40;;;;;;;3.85;1.95;;;;;;;24.46;36.16;99724.31;4456972;32;32714;-60
2022/08/12 07:04:19;;;;;;;5.18;2.35;;;;;;;24.34;36.68;99726.78;4462808;32;32504;-60
2022/08/12 07:07:08;;;;;;;4.07;2.15;;;;;;;24.64;36.37;99729.22;4459581;32;35313;-60
2022/08/12 07:09:38;;;;;;;5.28;2.67;;;;;;;25.04;35.29;99726.53;4466804;32;33100;-60
2022/08/12 07:12:26;;;;;;;5.10;2.62;;;;;;;24.99;35.69;99727.16;4460315;32;34939;-60
2022/08/12 07:14:56;;;;;;;4.22;2.15;;;;;;;25.10;35.51;99725.69;4467760;32;32958;-60
2022/08/12 07:17:24;;;;;;;5.65;2.12;;;;;;;25.02;35.67;99726.75;4452553;32;34998;-60
2022/08/12 07:19:53;;;;;;;4.80;2.60;;;;;;;24.73;36.03;99725.25;4466180;32;33330;-60
2022/08/12 07:22:24;;;;;;;4.40;2.33;;;;;;;25.05;35.68;99733.72;4460832;32;32688;-61
2022/08/12 07:25:29;;;;;;;3.47;2.00;;;;;;;25.04;35.61;99723.78;4453064;32;35080;-60
2022/08/12 07:27:41;;;;;;;4.32;2.37;;;;;;;24.80;35.70;99731.56;4462110;32;32574;-61
2022/08/12 07:30:09;;;;;;;4.95;2.58;;;;;;;25.30;34.93;99737.56;4454414;32;33824;-61
2022/08/12 07:32:37;;;;;;;3.87;2.12;;;;;;;24.91;35.90;99732.88;4444450;32;32202;-61
2022/08/12 07:35:05;;;;;;;5.28;2.28;;;;;;;24.80;36.13;99731.56;4457417;32;34018;-60
2022/08/12 07:37:39;;;;;;;3.12;1.92;;;;;;;24.89;35.63;99736.84;4461140;32;33830;-62
2022/08/12 07:40:10;;;;;;;4.50;2.37;;;;;;;25.05;35.48;99739.19;4466663;32;34728;-61
2022/08/12 07:42:39;;;;;;;4.40;2.30;;;;;;;25.00;36.06;99731.59;4463894;32;34867;-61
2022/08/12 07:45:08;;;;;;;5.03;2.22;;;;;;;24.98;35.95;99739.19;4462875;32;32872;-61
2022/08/12 07:47:36;;;;;;;4.30;2.22;;;;;;;25.16;35.74;99730.38;4464764;32;34182;-61
2022/08/12 07:50:07;;;;;;;3.60;2.15;;;;;;;25.43;35.63;99731.22;4466963;32;32293;-61
2022/08/12 07:52:37;;;;;;;4.07;2.40;;;;;;;25.43;35.41;99733.13;4455762;32;34117;-62
2022/08/12 07:55:05;;;;;;;6.78;2.17;;;;;;;25.46;35.37;99738.19;4458991;32;33424;-62
2022/08/12 07:57:34;;;;;;;6.05;2.30;;;;;;;25.36;35.36;99740.50;4461702;32;32770;-61
2022/08/12 08:00:04;;;;;;;6.97;2.97;;;;;;;25.60;34.95;99736.28;4465787;32;34539;-61
2022/08/12 08:02:35;;;;;;;7.22;2.60;;;;;;;25.37;35.77;99739.47;4440059;32;33486;-61
2022/08/12 08:05:05;;;;;;;4.87;2.30;;;;;;;25.48;35.42;99725.94;4466461;32;34100;-62
2022/08/12 08:07:32;;;;;;;4.07;2.40;;;;;;;25.74;35.16;99729.69;4465712;32;34474;-62
2022/08/12 08:10:02;;;;;;;3.95;2.08;;;;;;;25.73;35.27;99731.59;4461217;32;33374;-61
2022/08/12 08:15:16;;;;;;;6.00;2.60;;;;;;;26.27;34.64;99726.84;4459942;32;34069;-62
2022/08/12 08:18:01;;;;;;;5.57;2.70;;;;;;;26.29;34.48;99730.19;4460208;32;34302;-61
2022/08/12 08:20:40;;;;;;;4.55;2.12;;;;;;;26.33;34.17;99730.62;4464739;32;33120;-62
2022/08/12 08:23:11;;;;;;;4.30;2.60;;;;;;;26.16;34.26;99728.38;4463916;32;35113;-62
2022/08/12 08:25:40;;;;;;;6.70;2.72;;;;;;;26.26;34.48;99733.41;4460848;32;32977;-61
2022/08/12 08:28:12;;;;;;;5.65;2.65;;;;;;;26.18;34.04;99722.66;4461877;32;35164;-62
2022/08/12 08:30:42;;;;;;;4.85;2.70;;;;;;;26.12;34.10;99727.09;4464672;32;34681;-61
2022/08/12 08:33:12;;;;;;;4.25;2.40;;;;;;;26.27;34.18;99720.53;4455729;32;34756;-62
2022/08/12 08:35:59;;;;;;;3.60;2.12;;;;;;;26.61;34.27;99722.06;4460287;32;34056;-61
2022/08/12 08:38:28;;;;;;;4.93;2.62;;;;;;;27.09;32.76;99719.63;4459467;32;33867;-62
2022/08/12 08:44:11;;;;;;;5.72;2.47;;;;;;;26.60;33.36;99718.47;4456223;32;33888;-62
2022/08/12 08:46:39;;;;;;;5.87;2.55;;;;;;;26.48;34.17;99726.56;4469212;32;35277;-62
2022/08/12 08:49:07;;;;;;;4.40;2.47;;;;;;;26.82;33.74;99715.41;4455590;32;33903;-61
2022/08/12 08:51:35;;;;;;;5.07;2.65;;;;;;;27.16;33.16;99717.72;4452110;32;31756;-62
2022/08/12 08:54:05;;;;;;;6.97;2.80;;;;;;;26.88;33.31;99720.00;4465469;32;33897;-62
2022/08/12 08:56:41;;;;;;;5.65;2.92;;;;;;;26.89;33.88;99724.41;4465858;32;32852;-62
2022/08/12 08:59:10;;;;;;;5.93;2.72;;;;;;;27.15;32.83;99721.50;4458589;32;34077;-62
2022/08/12 09:01:39;;;;;;;7.25;3.22;;;;;;;27.34;32.07;99711.41;4457249;32;34698;-63
2022/08/12 09:04:11;;;;;;;2.85;1.92;;;;;;;27.42;32.33;99710.31;4453941;32;33828;-63
2022/08/12 09:06:59;;;;;;;5.12;2.50;;;;;;;27.36;32.02;99706.56;4461156;32;33480;-62
2022/08/12 09:09:49;;;;;;;6.75;2.97;;;;;;;27.25;32.23;99703.69;4458181;32;34947;-62
2022/08/12 09:15:41;;;;;;;5.32;2.62;;;;;;;27.92;32.14;99703.91;4461376;32;33789;-63
2022/08/12 09:18:23;;;;;;;;;;;;;;;28.05;30.64;99693.56;4467082;32;32504;-61
2022/08/12 09:21:11;;;;;;;5.05;2.50;;;;;;;27.83;31.41;99698.72;4465657;32;34979;-61
2022/08/12 09:23:41;;;;;;;4.50;2.67;;;;;;;28.18;30.48;99689.81;4461555;32;32191;-62
2022/08/12 09:26:29;;;;;;;5.10;3.15;;;;;;;28.42;30.21;99698.25;4464890;32;33800;-62
2022/08/12 09:28:57;;;;;;;5.37;2.95;;;;;;;28.15;30.14;99689.44;4457741;32;35084;-62
2022/08/12 09:31:29;;;;;;;6.15;3.17;;;;;;;28.45;29.65;99695.87;4457478;32;34023;-62
2022/08/12 09:34:17;;;;;;;5.20;2.90;;;;;;;28.32;29.17;99699.59;4461598;32;34514;-62
2022/08/12 09:37:00;;;;;;;6.30;2.90;;;;;;;28.96;28.54;99683.47;4456772;32;34743;-62
2022/08/12 09:39:47;;;;;;;5.05;2.65;;;;;;;29.21;27.76;99674.16;4460652;32;32636;-62
2022/08/12 09:45:44;;;;;;;3.83;2.55;;;;;;;28.60;28.45;99675.31;4456098;32;34685;-62
2022/08/12 09:48:33;;;;;;;5.90;2.80;;;;;;;28.78;27.48;99675.25;4456684;32;32678;-62
2022/08/12 09:51:07;;;;;;;3.83;2.00;;;;;;;28.98;28.19;99666.69;4461759;32;32820;-62
2022/08/12 09:53:43;;;;;;;5.47;2.53;;;;;;;28.65;28.47;99679.06;4447490;32;32765;-63
2022/08/12 09:56:16;;;;;;;4.28;2.33;;;;;;;28.79;28.57;99672.25;4440684;32;33152;-62
2022/08/12 09:59:08;;;;;;;4.35;2.05;;;;;;;28.92;28.32;99671.22;4457149;32;34192;-62
2022/08/12 10:01:39;;;;;;;4.20;2.10;;;;;;;28.75;28.86;99670.22;4452310;32;34209;-63
2022/08/12 10:04:27;;;;;;;5.53;2.65;;;;;;;29.01;28.36;99666.25;4460291;32;33393;-62
2022/08/12 10:06:56;;;;;;;4.65;2.78;;;;;;;29.08;28.89;99663.38;4458035;32;33482;-63
2022/08/12 10:09:24;;;;;;;3.85;1.80;;;;;;;29.52;28.23;99672.16;4461980;32;33668;-66
2022/08/12 10:15:18;;;;;;;5.97;2.30;;;;;;;29.87;26.80;99663.88;4453284;32;34125;-63
2022/08/12 10:18:06;;;;;;;3.95;2.10;;;;;;;30.20;26.45;99660.44;4461154;32;32399;-62
2022/08/12 10:20:34;;;;;;;3.53;1.90;;;;;;;30.21;26.22;99659.38;4461763;32;34983;-63
2022/08/12 10:23:02;;;;;;;3.72;2.15;;;;;;;30.30;26.21;99646.84;4459102;32;32846;-63
2022/08/12 10:31:30;;;;;;;6.00;2.25;;;;;;;30.57;25.83;99649.84;4459652;32;32633;-63
2022/08/12 10:34:23;;;;;;;4.85;2.37;;;;;;;30.34;25.86;99645.28;4464574;32;32814;-64
2022/08/12 10:36:57;;;;;;;4.90;2.17;;;;;;;30.25;26.25;99649.50;4454490;32;34719;-63
2022/08/12 10:39:38;;;;;;;4.53;2.45;;;;;;;30.06;26.77;99643.31;4453859;32;33248;-63
2022/08/12 10:45:15;;;;;;;4.50;2.25;;;;;;;30.79;26.22;99636.19;4460868;32;32562;-63
2022/08/12 10:47:51;;;;;;;3.87;1.98;;;;;;;30.79;25.94;99640.88;4462893;32;34425;-62
2022/08/12 10:50:40;;;;;;;5.25;2.28;;;;;;;30.26;26.98;99639.31;4456637;32;33502;-62
2022/08/12 10:53:28;;;;;;;3.47;1.98;;;;;;;30.66;26.04;99628.19;4454823;32;35060;-64
2022/08/12 10:56:16;;;;;;;7.10;2.58;;;;;;;30.58;25.99;99637.69;4452802;32;34805;-64
2022/08/12 10:58:44;;;;;;;3.55;2.03;;;;;;;31.10;25.70;99628.37;4458476;32;32678;-63
2022/08/12 11:01:15;;;;;;;7.70;2.33;;;;;;;31.17;24.97;99620.75;4440868;32;32038;-63
2022/08/12 11:04:04;;;;;;;3.70;2.03;;;;;;;31.28;25.06;99619.00;4462747;32;33705;-63
2022/08/12 11:06:52;;;;;;;5.65;3.08;;;;;;;31.06;25.29;99630.81;4461526;32;35367;-62
2022/08/12 11:09:41;;;;;;;5.60;2.62;;;;;;;30.36;26.28;99615.47;4463070;32;32551;-62
2022/08/12 11:12:28;;;;;;;6.75;2.60;;;;;;;29.89;26.38;99628.59;4451202;32;31931;-63
2022/08/12 11:15:19;;;;;;;4.03;1.90;;;;;;;29.60;27.25;99628.53;4463043;32;31906;-62
2022/08/12 11:18:07;;;;;;;4.32;2.62;;;;;;;29.92;26.52;99625.31;4456132;32;34020;-62
2022/08/12 11:20:46;;;;;;;5.53;2.22;;;;;;;29.93;26.85;99616.81;4454297;32;33900;-62
2022/08/12 11:23:15;;;;;;;4.87;2.37;;;;;;;30.33;26.06;99615.13;4452297;32;33579;-62
2022/08/12 11:26:04;;;;;;;6.28;2.17;;;;;;;30.06;26.34;99609.34;4454661;32;32225;-62
2022/08/12 11:28:34;;;;;;;3.33;1.80;;;;;;;30.35;26.75;99612.97;4457347;32;35186;-64
2022/08/12 11:31:07;;;;;;;10.70;2.45;;;;;;;30.07;26.15;99613.78;4462453;32;34087;-64
2022/08/12 11:33:36;;;;;;;6.55;1.95;;;;;;;29.59;27.34;99614.94;4438879;32;34019;-62
2022/08/12 11:36:24;;;;;;;4.78;1.92;;;;;;;29.29;27.39;99615.94;4460063;32;32500;-63
2022/08/12 11:38:53;;;;;;;6.03;2.40;;;;;;;29.41;26.79;99602.16;4457864;32;33917;-64
2022/08/12 11:41:24;;;;;;;6.15;1.95;;;;;;;29.24;27.27;99607.53;4441317;32;32232;-63
2022/08/12 11:44:00;;;;;;;3.97;1.95;;;;;;;28.75;27.14;99615.97;4441720;32;32137;-65
2022/08/12 11:46:49;;;;;;;3.97;2.05;;;;;;;29.13;26.75;99603.72;4448220;32;33270;-63
2022/08/12 11:49:23;;;;;;;2.90;1.60;;;;;;;29.36;26.87;99611.13;4458850;32;34144;-63
2022/08/12 11:52:00;;;;;;;4.10;1.85;;;;;;;29.07;26.66;99610.19;4461904;32;32890;-62
2022/08/12 11:54:29;;;;;;;7.00;2.00;;;;;;;29.44;25.91;99604.44;4450229;32;34700;-62
2022/08/12 11:56:58;;;;;;;3.90;1.45;;;;;;;29.43;25.11;99599.97;4443301;32;32919;-62
2022/08/12 11:59:31;;;;;;;2.90;1.60;;;;;;;29.53;25.23;99613.16;4450129;32;32370;-64
2022/08/12 12:02:19;;;;;;;6.43;2.12;;;;;;;29.51;25.60;99602.38;4452480;32;33932;-62
2022/08/12 12:04:49;;;;;;;3.28;2.00;;;;;;;29.31;26.42;99608.28;4454754;32;34228;-62
2022/08/12 12:07:21;;;;;;;3.85;1.48;;;;;;;29.58;26.55;99594.81;4452795;32;34996;-63
2022/08/12 12:10:12;;;;;;;2.80;1.60;;;;;;;29.88;26.57;99593.81;4451262;32;34914;-63
2022/08/12 12:12:40;;;;;;;3.30;1.70;;;;;;;29.79;26.89;99596.13;4450598;32;35247;-62
2022/08/12 12:15:17;;;;;;;3.40;1.87;;;;;;;29.08;28.18;99609.09;4446189;32;31990;-62
2022/08/12 12:17:52;;;;;;;4.05;1.52;;;;;;;28.86;28.23;99595.06;4455520;32;32602;-62
2022/08/12 12:20:22;;;;;;;4.40;2.00;;;;;;;29.21;28.29;99597.87;4448541;32;32914;-62
2022/08/12 12:22:54;;;;;;;4.43;2.33;;;;;;;29.64;27.69;99593.03;4465452;32;33114;-62
2022/08/12 12:25:21;;;;;;;3.62;1.92;;;;;;;29.85;27.46;99592.38;4464415;32;32382;-63
2022/08/12 12:28:09;;;;;;;5.28;1.95;;;;;;;29.26;28.06;99594.38;4450816;32;33588;-62
2022/08/12 12:30:57;;;;;;;3.67;2.08;;;;;;;29.26;28.35;99602.63;4450418;32;33785;-62
2022/08/12 12:33:26;;;;;;;4.47;1.62;;;;;;;29.34;27.95;99595.91;4454466;32;34911;-62
2022/08/12 12:36:13;;;;;;;5.05;2.35;;;;;;;29.58;27.79;99591.22;4452844;32;34715;-62
2022/08/12 12:38:50;;;;;;;5.10;2.28;;;;;;;29.45;28.58;99590.41;4453732;32;36008;-63
2022/08/12 12:41:18;;;;;;;3.47;1.80;;;;;;;28.88;29.25;99578.28;4453883;32;32626;-62
2022/08/12 12:43:45;;;;;;;6.22;1.83;;;;;;;29.97;27.62;99574.94;4459172;32;34397;-61
2022/08/12 12:46:31;;;;;;;20.77;4.62;;;;;;;29.69;27.76;99582.09;4461840;32;33718;-63
2022/08/12 12:48:58;;;;;;;7.75;1.80;;;;;;;29.78;28.05;99575.13;4457209;32;33868;-62
2022/08/12 12:51:26;;;;;;;23.92;4.37;;;;;;;29.90;27.14;99567.66;4457790;32;37432;-62
2022/08/12 12:54:14;;;;;;;36.53;4.72;;;;;;;30.02;27.30;99561.25;4451154;32;33904;-63
2022/08/12 12:56:48;;;;;;;3.92;2.03;;;;;;;30.12;27.34;99558.69;4463485;32;31951;-61
2022/08/12 12:59:17;;;;;;;4.72;2.10;;;;;;;30.02;27.24;99556.59;4466361;32;33651;-62
2022/08/12 13:02:06;;;;;;;4.40;1.92;;;;;;;29.68;27.42;99558.37;4454908;32;33811;-62
2022/08/12 13:04:36;;;;;;;4.50;2.00;;;;;;;29.90;26.86;99548.34;4449108;32;34051;-62
2022/08/12 13:07:05;;;;;;;3.22;1.67;;;;;;;29.66;26.54;99552.25;4464014;32;33569;-62
2022/08/12 13:09:33;;;;;;;3.40;1.60;;;;;;;29.80;26.35;99550.91;4437919;32;33499;-61
2022/08/12 13:12:07;;;;;;;2.72;1.58;;;;;;;30.13;24.74;99546.56;4456593;32;33908;-63
2022/08/12 13:14:37;;;;;;;7.20;2.10;;;;;;;30.08;25.25;99536.28;4459129;32;33998;-61
2022/08/12 13:17:10;;;;;;;3.22;1.65;;;;;;;30.24;25.13;99531.91;4458760;32;34731;-63
2022/08/12 13:19:41;;;;;;;;;;;;;;;30.21;24.91;99532.41;4452071;32;34977;-61
2022/08/12 13:22:16;;;;;;;2.85;1.62;;;;;;;30.04;24.00;99539.75;4458428;32;35140;-61
2022/08/12 13:24:49;;;;;;;3.42;1.60;;;;;;;30.03;22.66;99533.41;4461435;32;32726;-61
2022/08/12 13:27:30;;;;;;;4.03;1.58;;;;;;;30.28;22.13;99538.59;4459660;32;32819;-62
2022/08/12 13:30:08;;;;;;;5.37;1.52;;;;;;;30.20;21.57;99522.44;4439188;32;32761;-61
2022/08/12 13:32:40;;;;;;;4.43;2.15;;;;;;;30.49;21.66;99533.41;4438962;32;32529;-61
2022/08/12 13:35:08;;;;;;;4.43;1.70;;;;;;;30.62;22.72;99533.91;4454911;32;33347;-62
2022/08/12 13:37:58;;;;;;;5.32;1.83;;;;;;;30.03;23.22;99527.06;4459405;32;31708;-61
2022/08/12 13:40:31;;;;;;;5.22;1.90;;;;;;;30.60;23.76;99524.22;4459437;32;32446;-63
2022/08/12 13:43:01;;;;;;;5.37;1.90;;;;;;;30.48;24.33;99527.06;4439812;32;33039;-64
2022/08/12 13:45:33;;;;;;;3.22;1.67;;;;;;;30.34;24.80;99529.31;4454679;32;34242;-62
2022/08/12 13:48:03;;;;;;;4.15;1.80;;;;;;;30.07;25.29;99529.06;4458628;32;33469;-62
2022/08/12 13:50:39;;;;;;;3.50;1.77;;;;;;;30.35;25.28;99524.62;4466618;32;34998;-62
2022/08/12 13:53:13;;;;;;;4.47;2.17;;;;;;;29.82;26.61;99529.41;4448764;32;32920;-62
2022/08/12 13:55:55;;;;;;;3.70;2.10;;;;;;;29.87;26.49;99512.97;4448323;32;34323;-62
2022/08/12 13:58:29;;;;;;;4.43;2.00;;;;;;;30.12;25.69;99522.81;4458205;32;33281;-62
2022/08/12 14:01:04;;;;;;;5.28;1.80;;;;;;;30.22;26.11;99523.03;4456193;32;35071;-62
2022/08/12 14:03:36;;;;;;;4.32;2.12;;;;;;;30.20;26.35;99518.84;4451940;32;33871;-62